Time;durP1;ratioP1;P1;durP2;ratioP2;P2;SDS_P1;SDS_P2;PMS_P1;PMS_P2;Temp;Humidity;BMP_temperature;BMP_pressure;BME280_temperature;BME280_humidity;BME280_pressure;Samples;Min_cycle;Max_cycle;Signal;HPM_P1;HPM_P2
2023/08/22 00:02:27;;;;;;;111.85;58.92;;;21.10;86.80;;;;;;4924258;28;90815;-45
2023/08/22 00:04:53;;;;;;;113.60;59.58;;;21.00;86.90;;;;;;4921452;28;92567;-46
2023/08/22 00:07:19;;;;;;;112.78;59.97;;;21.00;86.90;;;;;;4927027;28;89715;-44
2023/08/22 00:09:44;;;;;;;112.00;59.78;;;21.00;87.00;;;;;;4920216;28;90501;-45
2023/08/22 00:12:10;;;;;;;113.03;59.83;;;20.90;87.00;;;;;;4926227;28;89591;-46
2023/08/22 00:14:36;;;;;;;112.85;60.22;;;20.90;87.10;;;;;;4922026;28;90267;-41
2023/08/22 00:17:02;;;;;;;114.95;60.20;;;20.90;87.10;;;;;;4924068;28;91041;-41
2023/08/22 00:19:27;;;;;;;110.80;58.50;;;20.90;87.30;;;;;;4921787;28;90989;-46
2023/08/22 00:21:53;;;;;;;114.53;59.50;;;20.90;87.40;;;;;;4920354;28;90268;-41
2023/08/22 00:24:18;;;;;;;113.93;59.95;;;20.90;87.40;;;;;;4919585;28;90055;-42
2023/08/22 00:26:44;;;;;;;114.38;60.50;;;20.80;87.40;;;;;;4916713;28;91859;-47
2023/08/22 00:29:10;;;;;;;113.72;59.75;;;20.80;87.50;;;;;;4922095;28;90297;-45
2023/08/22 00:31:35;;;;;;;112.95;59.95;;;20.80;87.50;;;;;;4921794;28;90948;-42
2023/08/22 00:34:02;;;;;;;114.40;60.08;;;20.80;87.60;;;;;;4925145;28;89785;-43
2023/08/22 00:36:29;;;;;;;112.68;59.92;;;20.70;87.60;;;;;;4919572;28;94751;-45
2023/08/22 00:38:54;;;;;;;113.07;60.00;;;20.70;87.60;;;;;;4923465;28;91077;-41
2023/08/22 00:41:20;;;;;;;112.82;59.58;;;20.70;87.80;;;;;;4908091;28;90531;-42
2023/08/22 00:43:46;;;;;;;112.50;59.42;;;20.70;87.80;;;;;;4918860;28;89776;-46
2023/08/22 00:46:13;;;;;;;113.90;59.47;;;20.70;87.80;;;;;;4924559;28;91720;-42
2023/08/22 00:48:38;;;;;;;111.80;58.85;;;20.70;87.90;;;;;;4923023;28;89929;-43
2023/08/22 00:51:05;;;;;;;111.72;59.25;;;20.70;87.90;;;;;;4922013;28;91804;-44
2023/08/22 00:53:32;;;;;;;111.90;58.85;;;20.70;88.00;;;;;;4926126;28;89929;-45
2023/08/22 00:55:58;;;;;;;111.68;59.10;;;20.70;88.00;;;;;;4929113;28;89684;-43
2023/08/22 00:58:23;;;;;;;113.15;59.72;;;20.60;88.00;;;;;;4923471;28;89290;-41
2023/08/22 01:00:49;;;;;;;110.85;59.05;;;20.60;88.00;;;;;;4926354;28;90598;-42
2023/08/22 01:03:15;;;;;;;113.22;59.03;;;20.60;88.00;;;;;;4930865;28;91253;-41
2023/08/22 01:05:52;;;;;;;111.72;58.65;;;20.60;88.10;;;;;;4920125;28;91196;-43
2023/08/22 01:08:23;;;;;;;112.80;59.95;;;20.60;88.10;;;;;;4929597;28;90115;-43
2023/08/22 01:10:53;;;;;;;113.95;59.20;;;20.50;88.30;;;;;;4926769;28;90853;-43
2023/08/22 01:13:31;;;;;;;112.65;59.15;;;20.50;88.30;;;;;;4923369;28;89842;-41
2023/08/22 01:15:57;;;;;;;114.68;59.97;;;20.50;88.30;;;;;;4927103;28;90388;-44
2023/08/22 01:18:24;;;;;;;113.00;59.63;;;20.50;88.40;;;;;;4905547;28;91627;-42
2023/08/22 01:20:50;;;;;;;112.28;59.05;;;20.40;88.40;;;;;;4925824;28;90488;-46
2023/08/22 01:23:15;;;;;;;112.00;59.53;;;20.40;88.40;;;;;;4919480;28;91742;-42
2023/08/22 01:25:41;;;;;;;113.45;59.10;;;20.40;88.40;;;;;;4925902;28;91875;-40
2023/08/22 01:28:23;;;;;;;111.78;58.55;;;20.40;88.50;;;;;;4924237;28;94605;-46
2023/08/22 01:30:58;;;;;;;111.75;59.13;;;20.40;88.80;;;;;;4922691;28;91223;-43
2023/08/22 01:33:33;;;;;;;113.82;58.88;;;20.40;88.80;;;;;;4925491;28;90941;-42
2023/08/22 01:35:59;;;;;;;110.85;58.67;;;20.30;89.00;;;;;;4922587;28;90833;-43
2023/08/22 01:38:29;;;;;;;112.63;59.03;;;20.30;88.90;;;;;;4925406;28;91859;-40
2023/08/22 01:40:57;;;;;;;110.85;58.53;;;20.20;89.10;;;;;;4924254;28;93198;-42
2023/08/22 01:43:22;;;;;;;112.72;59.05;;;20.30;89.00;;;;;;4921949;28;91033;-39
2023/08/22 01:45:48;;;;;;;110.88;58.42;;;20.20;89.20;;;;;;4924184;28;93393;-41
2023/08/22 01:48:14;;;;;;;112.05;58.78;;;20.20;89.10;;;;;;4920044;28;94260;-42
2023/08/22 01:50:39;;;;;;;110.50;58.13;;;20.20;89.30;;;;;;4922897;28;89664;-42
2023/08/22 01:53:05;;;;;;;111.65;58.67;;;20.10;89.00;;;;;;4919117;28;90322;-44
2023/08/22 01:55:30;;;;;;;110.88;58.35;;;20.10;89.10;;;;;;4922542;28;93263;-41
2023/08/22 01:57:56;;;;;;;110.78;58.47;;;20.10;89.30;;;;;;4919982;28;90505;-45
2023/08/22 02:00:21;;;;;;;110.55;58.47;;;20.10;89.20;;;;;;4904289;28;89894;-42
2023/08/22 02:02:47;;;;;;;111.68;57.95;;;20.10;89.40;;;;;;4920531;28;89839;-40
2023/08/22 02:05:13;;;;;;;111.35;58.38;;;20.10;89.40;;;;;;4925471;28;89847;-41
2023/08/22 02:07:38;;;;;;;111.68;58.90;;;20.10;90.00;;;;;;4921166;28;91979;-44
2023/08/22 02:10:04;;;;;;;111.30;58.22;;;20.10;89.60;;;;;;4915050;28;89522;-41
2023/08/22 02:12:31;;;;;;;112.07;58.47;;;20.10;89.50;;;;;;4920133;28;92891;-41
2023/08/22 02:14:57;;;;;;;112.25;58.45;;;20.10;89.60;;;;;;4915843;28;93833;-40
2023/08/22 02:17:22;;;;;;;110.57;58.17;;;20.00;89.30;;;;;;4921784;28;89729;-44
2023/08/22 02:19:48;;;;;;;111.75;58.83;;;20.00;89.60;;;;;;4918145;28;90584;-41
2023/08/22 02:22:14;;;;;;;110.35;58.47;;;20.00;89.50;;;;;;4924120;28;92284;-43
2023/08/22 02:24:40;;;;;;;111.78;58.85;;;20.00;89.60;;;;;;4925806;28;91590;-42
2023/08/22 02:27:06;;;;;;;110.18;58.47;;;20.00;89.70;;;;;;4920647;28;91644;-41
2023/08/22 02:29:32;;;;;;;111.85;58.05;;;20.00;90.10;;;;;;4901242;28;90129;-41
2023/08/22 02:31:57;;;;;;;111.70;58.35;;;20.00;89.80;;;;;;4921469;28;90557;-43
2023/08/22 02:34:24;;;;;;;111.93;58.53;;;20.00;90.00;;;;;;4916031;28;92601;-43
2023/08/22 02:36:50;;;;;;;110.47;58.53;;;19.90;89.80;;;;;;4920952;28;90297;-42
2023/08/22 02:39:16;;;;;;;110.30;58.75;;;19.90;89.80;;;;;;4919267;28;91929;-42
2023/08/22 02:41:41;;;;;;;111.03;58.35;;;19.90;89.70;;;;;;4919592;28;90023;-44
2023/08/22 02:44:07;;;;;;;111.80;58.03;;;19.90;90.20;;;;;;4923002;28;90864;-42
2023/08/22 02:46:32;;;;;;;109.95;58.30;;;19.80;89.70;;;;;;4914479;28;89729;-42
2023/08/22 02:48:58;;;;;;;111.45;58.75;;;19.80;89.80;;;;;;4914697;28;93642;-43
2023/08/22 02:51:24;;;;;;;110.65;58.50;;;19.80;89.90;;;;;;4919065;28;90318;-43
2023/08/22 02:53:49;;;;;;;111.13;58.38;;;19.80;90.00;;;;;;4922843;28;90030;-42
2023/08/22 02:56:15;;;;;;;110.55;58.45;;;19.80;89.90;;;;;;4918286;28;90206;-43
2023/08/22 02:58:41;;;;;;;109.40;58.10;;;19.80;90.00;;;;;;4928474;28;89575;-45
2023/08/22 03:01:07;;;;;;;109.82;58.20;;;19.70;90.00;;;;;;4926383;28;90695;-41
2023/08/22 03:03:33;;;;;;;110.25;58.20;;;19.70;90.00;;;;;;4920561;28;94198;-41
2023/08/22 03:06:00;;;;;;;109.90;58.47;;;19.70;90.00;;;;;;4926277;28;90219;-43
2023/08/22 03:08:26;;;;;;;110.70;58.72;;;19.70;90.10;;;;;;4920659;28;91240;-44
2023/08/22 03:10:52;;;;;;;110.30;58.22;;;19.70;90.10;;;;;;4922907;28;90449;-44
2023/08/22 03:13:18;;;;;;;111.82;58.97;;;19.60;90.10;;;;;;4923561;28;94203;-45
2023/08/22 03:15:45;;;;;;;110.30;58.40;;;19.60;90.10;;;;;;4929569;28;90238;-46
2023/08/22 03:18:11;;;;;;;111.53;58.30;;;19.60;90.10;;;;;;4922107;28;89679;-47
2023/08/22 03:20:36;;;;;;;110.53;58.53;;;19.60;90.10;;;;;;4924067;28;90329;-43
2023/08/22 03:23:04;;;;;;;110.28;58.33;;;19.60;90.20;;;;;;4920188;28;91025;-42
2023/08/22 03:25:30;;;;;;;109.93;58.08;;;19.60;90.20;;;;;;4925903;28;89531;-44
2023/08/22 03:27:55;;;;;;;111.80;58.45;;;19.60;90.20;;;;;;4921250;28;92896;-47
2023/08/22 03:30:21;;;;;;;110.80;58.58;;;19.60;90.20;;;;;;4922667;28;89952;-42
2023/08/22 03:32:47;;;;;;;109.70;58.17;;;19.60;90.20;;;;;;4921231;28;91373;-43
2023/08/22 03:35:13;;;;;;;111.50;58.42;;;19.50;90.10;;;;;;4920661;28;91498;-49
2023/08/22 03:37:40;;;;;;;111.70;58.22;;;19.50;90.10;;;;;;4921039;28;89841;-41
2023/08/22 03:40:06;;;;;;;110.25;58.30;;;19.50;90.20;;;;;;4915504;28;94489;-41
2023/08/22 03:42:32;;;;;;;110.32;58.10;;;19.50;90.20;;;;;;4925294;28;90645;-42
2023/08/22 03:44:57;;;;;;;109.68;58.22;;;19.50;90.20;;;;;;4923991;28;91562;-44
2023/08/22 03:47:23;;;;;;;110.60;57.97;;;19.40;90.20;;;;;;4925005;28;90879;-40
2023/08/22 03:49:49;;;;;;;110.63;57.97;;;19.40;90.20;;;;;;4901483;28;91477;-40
2023/08/22 03:52:14;;;;;;;111.28;58.47;;;19.40;90.30;;;;;;4927374;28;92431;-43
2023/08/22 03:54:40;;;;;;;111.13;58.60;;;19.40;90.20;;;;;;4918770;28;94078;-43
2023/08/22 03:57:05;;;;;;;109.07;58.15;;;19.40;90.20;;;;;;4925852;28;90774;-42
2023/08/22 03:59:31;;;;;;;111.53;58.70;;;19.40;90.30;;;;;;4924934;28;90288;-41
2023/08/22 04:01:57;;;;;;;110.65;58.42;;;19.40;90.40;;;;;;4916170;28;93532;-39
2023/08/22 04:04:23;;;;;;;109.13;57.88;;;19.30;90.40;;;;;;4915894;28;89602;-39
2023/08/22 04:06:48;;;;;;;111.57;58.88;;;19.40;90.50;;;;;;4919750;28;92020;-38
2023/08/22 04:09:14;;;;;;;110.68;58.17;;;19.30;90.30;;;;;;4926108;28;90526;-39
2023/08/22 04:11:43;;;;;;;110.45;58.42;;;19.30;90.40;;;;;;4916857;28;89874;-39
2023/08/22 04:14:09;;;;;;;110.63;58.08;;;19.30;90.40;;;;;;4918800;28;93781;-40
2023/08/22 04:16:34;;;;;;;109.70;58.10;;;19.30;90.40;;;;;;4928931;28;90439;-39
2023/08/22 04:19:00;;;;;;;110.53;58.70;;;19.30;90.40;;;;;;4922919;28;94225;-40
2023/08/22 04:21:25;;;;;;;110.95;58.50;;;19.30;90.50;;;;;;4920218;28;90631;-40
2023/08/22 04:23:51;;;;;;;111.75;58.63;;;19.30;90.40;;;;;;4924406;28;90979;-38
2023/08/22 04:26:17;;;;;;;109.80;58.63;;;19.30;90.40;;;;;;4923699;28;89940;-38
2023/08/22 04:28:42;;;;;;;111.95;59.10;;;19.30;90.40;;;;;;4906100;28;89901;-39
2023/08/22 04:31:08;;;;;;;110.90;58.63;;;19.20;90.40;;;;;;4928333;28;94515;-43
2023/08/22 04:33:33;;;;;;;111.82;58.67;;;19.20;90.40;;;;;;4922353;28;90865;-38
2023/08/22 04:35:59;;;;;;;112.10;58.38;;;19.20;90.50;;;;;;4927910;28;90000;-41
2023/08/22 04:38:24;;;;;;;109.47;57.95;;;19.20;90.40;;;;;;4922542;28;90435;-38
2023/08/22 04:40:50;;;;;;;112.22;58.55;;;19.20;90.40;;;;;;4927460;28;90672;-40
2023/08/22 04:43:16;;;;;;;111.65;58.58;;;19.20;90.40;;;;;;4920872;28;94465;-39
2023/08/22 04:45:42;;;;;;;111.00;58.15;;;19.10;90.40;;;;;;4929598;28;90824;-39
2023/08/22 04:48:08;;;;;;;113.72;58.78;;;19.10;90.50;;;;;;4922646;28;92500;-39
2023/08/22 04:50:33;;;;;;;113.43;58.95;;;19.10;90.50;;;;;;4930090;28;91639;-38
2023/08/22 04:52:59;;;;;;;109.57;58.38;;;19.10;90.70;;;;;;4927023;28;89873;-39
2023/08/22 04:55:25;;;;;;;110.03;57.80;;;19.10;90.50;;;;;;4925021;28;89786;-40
2023/08/22 04:57:50;;;;;;;109.55;57.63;;;19.10;90.70;;;;;;4923266;28;92435;-37
2023/08/22 05:00:17;;;;;;;112.18;59.20;;;19.10;90.60;;;;;;4923820;28;89830;-39
2023/08/22 05:02:42;;;;;;;110.18;58.05;;;19.10;90.60;;;;;;4926998;28;89682;-38
2023/08/22 05:05:10;;;;;;;110.80;58.88;;;19.10;91.30;;;;;;4920030;28;90393;-39
2023/08/22 05:07:37;;;;;;;110.93;58.53;;;19.10;90.60;;;;;;4929082;28;90263;-39
2023/08/22 05:10:03;;;;;;;110.47;57.63;;;19.10;90.50;;;;;;4922246;28;91266;-40
2023/08/22 05:12:28;;;;;;;113.60;57.97;;;19.20;94.70;;;;;;4928341;28;89617;-40
2023/08/22 05:14:56;;;;;;;112.20;59.35;;;19.20;95.00;;;;;;4925538;28;90026;-41
2023/08/22 05:17:22;;;;;;;113.57;60.45;;;19.20;94.10;;;;;;4928111;28;91074;-42
2023/08/22 05:19:47;;;;;;;115.28;60.75;;;19.20;93.40;;;;;;4921667;28;91192;-41
2023/08/22 05:22:13;;;;;;;113.90;59.83;;;19.20;93.00;;;;;;4924085;28;90233;-43
2023/08/22 05:24:39;;;;;;;114.93;59.80;;;19.20;92.70;;;;;;4921692;28;90014;-41
2023/08/22 05:27:04;;;;;;;116.65;59.55;;;19.20;92.50;;;;;;4926560;28;92182;-45
2023/08/22 05:29:30;;;;;;;113.47;60.05;;;19.20;92.50;;;;;;4926939;28;90726;-43
2023/08/22 05:31:55;;;;;;;117.50;60.35;;;19.20;92.30;;;;;;4917559;28;91261;-42
2023/08/22 05:34:21;;;;;;;115.15;59.55;;;19.10;92.20;;;;;;4928089;28;91331;-45
2023/08/22 05:36:47;;;;;;;116.53;59.53;;;19.10;92.10;;;;;;4920355;28;89779;-44
2023/08/22 05:39:12;;;;;;;113.45;59.47;;;19.10;92.30;;;;;;4921659;28;90027;-42
2023/08/22 05:41:38;;;;;;;111.97;59.63;;;19.00;92.30;;;;;;4920763;28;94440;-43
2023/08/22 05:44:04;;;;;;;114.93;59.20;;;19.00;92.30;;;;;;4926423;28;91090;-45
2023/08/22 05:46:30;;;;;;;111.82;58.47;;;19.00;92.30;;;;;;4924848;28;90539;-49
2023/08/22 05:48:55;;;;;;;112.15;59.72;;;19.00;92.40;;;;;;4924669;28;90176;-48
2023/08/22 05:51:21;;;;;;;113.13;59.83;;;19.00;92.40;;;;;;4921522;28;89025;-49
2023/08/22 05:53:47;;;;;;;112.10;59.25;;;19.00;92.30;;;;;;4924138;28;89505;-45
2023/08/22 05:56:12;;;;;;;113.05;59.08;;;19.00;92.50;;;;;;4923878;28;90840;-48
2023/08/22 05:58:38;;;;;;;114.10;59.38;;;19.00;92.50;;;;;;4923139;28;92303;-47
2023/08/22 06:01:09;;;;;;;112.50;59.35;;;19.00;92.70;;;;;;4918794;28;92922;-44
2023/08/22 06:03:35;;;;;;;116.72;59.47;;;19.00;92.90;;;;;;4921446;28;90215;-47
2023/08/22 06:06:01;;;;;;;111.57;58.13;;;19.00;92.90;;;;;;4930742;28;91625;-43
2023/08/22 06:08:26;;;;;;;109.60;57.17;;;19.00;91.80;;;;;;4920486;28;92345;-45
2023/08/22 06:10:52;;;;;;;110.53;57.95;;;19.00;91.30;;;;;;4928050;28;90605;-43
2023/08/22 06:13:18;;;;;;;111.75;57.75;;;19.00;91.10;;;;;;4923943;28;95516;-47
2023/08/22 06:15:43;;;;;;;111.80;57.67;;;19.00;91.10;;;;;;4930143;28;89291;-46
2023/08/22 06:18:09;;;;;;;108.55;57.47;;;19.00;91.10;;;;;;4923122;28;89606;-51
2023/08/22 06:20:38;;;;;;;111.20;57.75;;;19.00;90.90;;;;;;4926083;28;91594;-49
2023/08/22 06:23:05;;;;;;;111.13;57.25;;;19.10;90.90;;;;;;4925327;28;93028;-43
2023/08/22 06:25:30;;;;;;;108.65;57.42;;;19.10;90.90;;;;;;4927478;28;90098;-48
2023/08/22 06:27:56;;;;;;;111.07;57.17;;;19.10;90.70;;;;;;4930490;28;90095;-41
2023/08/22 06:30:22;;;;;;;110.57;57.72;;;19.10;90.70;;;;;;4924777;28;93996;-42
2023/08/22 06:32:47;;;;;;;109.38;57.25;;;19.20;90.50;;;;;;4924124;28;90297;-45
2023/08/22 06:35:13;;;;;;;110.57;57.83;;;19.20;90.60;;;;;;4923613;28;91283;-41
2023/08/22 06:37:39;;;;;;;110.57;57.67;;;19.20;90.40;;;;;;4926285;28;90365;-42
2023/08/22 06:40:05;;;;;;;112.35;58.30;;;19.30;90.70;;;;;;4922933;28;90190;-46
2023/08/22 06:42:31;;;;;;;111.78;58.50;;;19.30;90.40;;;;;;4920892;28;90396;-41
2023/08/22 06:44:57;;;;;;;112.75;58.47;;;19.40;90.20;;;;;;4928023;28;90078;-43
2023/08/22 06:47:23;;;;;;;113.43;58.08;;;19.50;90.30;;;;;;4926075;28;91960;-44
2023/08/22 06:49:49;;;;;;;113.00;58.72;;;19.50;90.00;;;;;;4927640;28;90775;-43
2023/08/22 06:52:14;;;;;;;113.93;58.35;;;19.60;89.40;;;;;;4922975;28;91532;-42
2023/08/22 06:54:40;;;;;;;112.93;58.45;;;19.60;89.60;;;;;;4928085;28;89651;-41
2023/08/22 06:57:06;;;;;;;112.38;58.35;;;19.70;89.60;;;;;;4918878;28;92842;-41
2023/08/22 06:59:32;;;;;;;113.18;58.17;;;19.80;89.10;;;;;;4926079;28;95055;-45
2023/08/22 07:01:58;;;;;;;112.50;58.17;;;19.80;89.60;;;;;;4927149;28;90453;-42
2023/08/22 07:04:24;;;;;;;113.20;58.03;;;19.90;89.20;;;;;;4926603;28;90075;-41
2023/08/22 07:06:49;;;;;;;111.13;58.65;;;20.00;90.10;;;;;;4923192;28;89963;-42
2023/08/22 07:09:15;;;;;;;112.78;58.40;;;20.00;88.60;;;;;;4922738;28;91776;-42
2023/08/22 07:11:42;;;;;;;113.22;58.28;;;20.10;88.40;;;;;;4925834;28;92296;-44
2023/08/22 07:14:08;;;;;;;113.18;58.50;;;20.10;88.30;;;;;;4921650;28;89852;-44
2023/08/22 07:16:33;;;;;;;112.72;58.85;;;20.20;88.30;;;;;;4928524;28;90229;-42
2023/08/22 07:18:59;;;;;;;112.97;58.88;;;20.20;88.10;;;;;;4921441;28;90026;-42
2023/08/22 07:21:25;;;;;;;114.85;58.55;;;20.30;87.70;;;;;;4927223;28;91564;-43
2023/08/22 07:23:50;;;;;;;116.00;58.30;;;20.30;87.40;;;;;;4922711;28;92963;-44
2023/08/22 07:26:16;;;;;;;112.93;59.00;;;20.30;87.70;;;;;;4925085;28;90945;-42
2023/08/22 07:28:42;;;;;;;112.63;59.30;;;20.40;88.00;;;;;;4933468;28;89280;-41
2023/08/22 07:31:07;;;;;;;115.13;58.72;;;20.50;87.50;;;;;;4925133;28;91543;-42
2023/08/22 07:33:33;;;;;;;111.07;57.15;;;20.50;86.70;;;;;;4922550;28;92783;-43
2023/08/22 07:35:59;;;;;;;112.72;57.55;;;20.60;86.50;;;;;;4919808;28;92073;-43
2023/08/22 07:38:25;;;;;;;111.38;57.55;;;20.60;86.50;;;;;;4926574;28;92089;-44
2023/08/22 07:40:51;;;;;;;111.88;57.67;;;20.70;87.30;;;;;;4927790;28;90869;-42
2023/08/22 07:43:16;;;;;;;113.53;57.22;;;20.70;87.10;;;;;;4932756;28;90120;-43
2023/08/22 07:45:42;;;;;;;111.40;57.67;;;20.80;86.80;;;;;;4923657;28;90182;-42
2023/08/22 07:48:08;;;;;;;111.38;57.42;;;20.80;86.60;;;;;;4923427;28;90664;-44
2023/08/22 07:50:34;;;;;;;111.03;57.33;;;20.90;85.70;;;;;;4923895;28;93649;-41
2023/08/22 07:53:00;;;;;;;109.82;56.97;;;20.90;87.80;;;;;;4924519;28;89953;-42
2023/08/22 07:55:26;;;;;;;109.63;56.85;;;21.00;85.80;;;;;;4922293;28;90141;-42
2023/08/22 07:57:52;;;;;;;110.38;56.65;;;21.00;85.30;;;;;;4921738;28;93600;-46
2023/08/22 08:00:18;;;;;;;109.78;57.13;;;21.10;85.80;;;;;;4929804;28;94037;-42
2023/08/22 08:02:45;;;;;;;110.95;56.50;;;21.10;86.20;;;;;;4926100;28;91468;-45
2023/08/22 08:05:12;;;;;;;109.45;56.97;;;21.20;84.60;;;;;;4931682;28;90163;-45
2023/08/22 08:07:38;;;;;;;111.43;56.75;;;21.20;85.20;;;;;;4924903;28;89959;-43
2023/08/22 08:10:04;;;;;;;109.93;57.00;;;21.20;85.00;;;;;;4929062;28;89972;-41
2023/08/22 08:12:30;;;;;;;109.97;56.83;;;21.20;85.10;;;;;;4925522;28;92312;-43
2023/08/22 08:14:56;;;;;;;108.82;56.42;;;21.30;85.30;;;;;;4928953;28;93635;-42
2023/08/22 08:17:22;;;;;;;109.75;56.40;;;21.30;84.40;;;;;;4927585;28;90921;-44
2023/08/22 08:19:48;;;;;;;109.85;56.47;;;21.30;83.80;;;;;;4928296;28;90145;-43
2023/08/22 08:22:13;;;;;;;111.35;56.85;;;21.40;83.60;;;;;;4928162;28;95598;-43
2023/08/22 08:24:39;;;;;;;111.03;56.85;;;21.40;84.00;;;;;;4925596;28;91232;-42
2023/08/22 08:27:05;;;;;;;111.28;56.65;;;21.50;83.80;;;;;;4928832;28;90716;-45
2023/08/22 08:29:31;;;;;;;112.53;57.15;;;21.60;83.50;;;;;;4925119;28;89702;-41
2023/08/22 08:31:57;;;;;;;111.07;56.78;;;21.50;83.00;;;;;;4932231;28;91733;-41
2023/08/22 08:34:24;;;;;;;110.70;56.78;;;21.60;84.70;;;;;;4927669;28;92241;-43
2023/08/22 08:36:50;;;;;;;111.28;56.80;;;21.70;82.90;;;;;;4929983;28;92168;-43
2023/08/22 08:39:17;;;;;;;110.55;56.28;;;21.60;83.70;;;;;;4930258;28;90387;-45
2023/08/22 08:41:54;;;;;;;111.22;56.45;;;21.70;82.60;;;;;;4921779;28;89991;-46
2023/08/22 08:44:20;;;;;;;111.25;56.35;;;21.70;82.80;;;;;;4930634;28;91478;-42
2023/08/22 08:46:47;;;;;;;110.15;56.17;;;21.80;82.50;;;;;;4923473;28;94531;-43
2023/08/22 08:49:15;;;;;;;111.28;56.33;;;21.80;82.20;;;;;;4929026;28;94922;-51
2023/08/22 08:51:42;;;;;;;112.07;56.35;;;21.90;82.20;;;;;;4922678;28;90607;-46
2023/08/22 08:54:09;;;;;;;111.07;56.85;;;21.90;82.10;;;;;;4926353;28;92500;-48
2023/08/22 08:56:35;;;;;;;110.53;56.03;;;22.00;82.20;;;;;;4923361;28;91348;-47
2023/08/22 08:59:00;;;;;;;113.05;56.63;;;22.10;82.50;;;;;;4925007;28;90614;-43
2023/08/22 09:01:26;;;;;;;112.22;56.45;;;22.10;82.60;;;;;;4926990;28;90734;-47
2023/08/22 09:03:52;;;;;;;111.45;56.50;;;22.10;81.80;;;;;;4923983;28;89914;-44
2023/08/22 09:06:20;;;;;;;111.10;56.67;;;22.20;81.90;;;;;;4933156;28;89950;-44
2023/08/22 09:09:08;;;;;;;109.82;56.10;;;22.20;83.00;;;;;;4923393;28;90246;-51
2023/08/22 09:11:34;;;;;;;110.30;56.38;;;22.30;82.30;;;;;;4930320;28;92254;-45
2023/08/22 09:14:00;;;;;;;111.15;56.65;;;22.30;81.20;;;;;;4927646;28;91438;-43
2023/08/22 09:16:27;;;;;;;111.05;56.42;;;22.30;81.90;;;;;;4920441;28;91480;-43
2023/08/22 09:19:01;;;;;;;110.93;56.75;;;22.30;81.80;;;;;;4928998;28;91777;-44
2023/08/22 09:21:27;;;;;;;113.32;56.30;;;22.40;81.50;;;;;;4926743;28;90956;-44
2023/08/22 09:24:04;;;;;;;110.72;57.08;;;22.40;81.60;;;;;;4925956;28;91518;-45
2023/08/22 09:26:29;;;;;;;109.90;56.28;;;22.40;82.10;;;;;;4921915;28;90520;-43
2023/08/22 09:28:55;;;;;;;109.75;56.53;;;22.50;81.10;;;;;;4924338;28;90959;-43
2023/08/22 09:31:22;;;;;;;109.93;56.40;;;22.60;81.30;;;;;;4925563;28;89318;-46
2023/08/22 09:33:48;;;;;;;112.55;57.10;;;22.60;80.70;;;;;;4926019;28;90634;-45
2023/08/22 09:36:21;;;;;;;112.07;57.13;;;22.70;83.70;;;;;;4927236;28;91862;-48
2023/08/22 09:38:59;;;;;;;112.03;56.55;;;22.70;82.20;;;;;;4928418;28;90758;-46
2023/08/22 09:41:28;;;;;;;110.88;56.67;;;22.80;81.20;;;;;;4920039;28;90873;-45
2023/08/22 09:44:00;;;;;;;111.47;56.78;;;22.80;80.40;;;;;;4926120;28;90130;-45
2023/08/22 09:46:26;;;;;;;112.40;56.63;;;22.80;80.40;;;;;;4920391;28;92362;-47
2023/08/22 09:48:55;;;;;;;111.38;56.88;;;22.90;80.40;;;;;;4925893;28;89977;-49
2023/08/22 09:51:21;;;;;;;112.85;57.25;;;22.90;79.90;;;;;;4918805;28;91030;-42
2023/08/22 09:53:51;;;;;;;111.22;57.13;;;23.00;80.20;;;;;;4927965;28;90248;-42
2023/08/22 09:56:20;;;;;;;112.10;57.17;;;23.00;80.00;;;;;;4923019;28;89529;-42
2023/08/22 09:58:46;;;;;;;112.35;57.13;;;23.10;79.40;;;;;;4924220;28;92466;-46
2023/08/22 10:01:16;;;;;;;111.30;56.85;;;23.10;79.30;;;;;;4923855;28;90212;-43
2023/08/22 10:03:43;;;;;;;113.82;56.95;;;23.20;78.80;;;;;;4928860;28;91683;-41
2023/08/22 10:06:12;;;;;;;111.70;57.00;;;23.20;78.70;;;;;;4927036;28;89895;-42
2023/08/22 10:08:37;;;;;;;113.00;56.88;;;23.30;78.70;;;;;;4919995;28;91702;-43
2023/08/22 10:11:06;;;;;;;114.05;57.13;;;23.40;78.10;;;;;;4926346;28;89859;-43
2023/08/22 10:13:32;;;;;;;114.63;57.55;;;23.40;78.80;;;;;;4923701;28;91512;-41
2023/08/22 10:15:58;;;;;;;113.30;57.28;;;23.40;77.70;;;;;;4925960;28;93885;-42
2023/08/22 10:18:25;;;;;;;112.22;57.17;;;23.50;77.40;;;;;;4922833;28;90406;-42
2023/08/22 10:20:53;;;;;;;111.80;57.22;;;23.60;77.10;;;;;;4925894;28;89576;-45
2023/08/22 10:23:58;;;;;;;113.50;57.33;;;23.60;77.00;;;;;;4921985;28;91460;-41
2023/08/22 10:26:27;;;;;;;113.30;58.00;;;23.70;77.30;;;;;;4921668;28;93888;-43
2023/08/22 10:29:12;;;;;;;112.68;57.45;;;23.70;77.40;;;;;;4924889;28;91270;-42
2023/08/22 10:32:15;;;;;;;113.75;57.38;;;23.70;77.10;;;;;;4933425;28;94739;-41
2023/08/22 10:34:41;;;;;;;114.30;57.30;;;23.80;77.10;;;;;;4925844;28;90887;-42
2023/08/22 10:37:20;;;;;;;112.75;57.33;;;23.80;76.80;;;;;;4918064;28;90105;-41
2023/08/22 10:39:49;;;;;;;113.35;57.85;;;23.90;76.10;;;;;;4923650;28;89523;-42
2023/08/22 10:42:17;;;;;;;113.35;57.50;;;24.00;76.00;;;;;;4924220;28;93908;-42
2023/08/22 10:44:57;;;;;;;114.88;57.13;;;24.00;76.10;;;;;;4924431;28;91156;-42
2023/08/22 10:47:24;;;;;;;113.25;57.35;;;24.10;76.00;;;;;;4928377;28;91318;-42
2023/08/22 10:49:54;;;;;;;112.03;57.45;;;24.10;75.50;;;;;;4920414;28;92062;-44
2023/08/22 10:52:36;;;;;;;117.70;58.30;;;24.20;75.30;;;;;;4931051;28;90343;-43
2023/08/22 10:55:08;;;;;;;114.15;57.83;;;24.20;75.50;;;;;;4925428;28;92318;-44
2023/08/22 10:57:36;;;;;;;113.25;57.92;;;24.20;74.90;;;;;;4919487;28;94039;-42
2023/08/22 11:00:19;;;;;;;112.82;57.88;;;24.30;75.10;;;;;;4926874;28;90681;-42
2023/08/22 11:02:59;;;;;;;118.32;58.13;;;24.30;74.50;;;;;;4921157;28;89556;-43
2023/08/22 11:05:26;;;;;;;113.35;57.47;;;24.40;73.50;;;;;;4920442;28;93319;-44
2023/08/22 11:07:52;;;;;;;115.65;58.33;;;24.40;74.60;;;;;;4925526;28;89713;-46
2023/08/22 11:10:20;;;;;;;113.97;57.75;;;24.50;75.30;;;;;;4915489;28;91073;-43
2023/08/22 11:12:46;;;;;;;114.25;58.13;;;24.50;74.00;;;;;;4915660;28;90476;-44
2023/08/22 11:15:13;;;;;;;113.78;57.65;;;24.60;73.80;;;;;;4926073;28;95434;-43
2023/08/22 11:17:40;;;;;;;113.30;57.90;;;24.60;74.40;;;;;;4922506;28;89821;-46
2023/08/22 11:20:17;;;;;;;112.80;57.88;;;24.60;74.70;;;;;;4925765;28;94051;-44
2023/08/22 11:22:43;;;;;;;113.78;58.05;;;24.70;74.10;;;;;;4921353;28;90516;-48
2023/08/22 11:25:11;;;;;;;112.45;57.42;;;24.70;73.80;;;;;;4923231;28;93671;-45
2023/08/22 11:27:40;;;;;;;112.22;57.63;;;24.60;74.10;;;;;;4929192;28;92884;-47
2023/08/22 11:30:08;;;;;;;111.70;57.30;;;24.60;72.90;;;;;;4918614;28;95026;-50
2023/08/22 11:32:36;;;;;;;115.05;57.95;;;24.60;74.80;;;;;;4925379;28;89639;-48
2023/08/22 11:35:05;;;;;;;113.25;57.47;;;24.60;74.10;;;;;;4917603;28;91246;-50
2023/08/22 11:37:36;;;;;;;112.43;57.65;;;24.60;75.20;;;;;;4926065;28;90363;-45
2023/08/22 11:40:04;;;;;;;112.72;57.60;;;24.60;75.20;;;;;;4920346;28;90688;-45
2023/08/22 11:42:32;;;;;;;113.60;57.67;;;24.60;74.70;;;;;;4922504;28;90546;-47
2023/08/22 11:45:04;;;;;;;112.25;57.63;;;24.60;74.50;;;;;;4923739;28;92113;-45
2023/08/22 11:47:41;;;;;;;113.22;57.70;;;24.70;75.00;;;;;;4922405;28;91136;-44
2023/08/22 11:50:29;;;;;;;113.40;57.78;;;24.70;74.70;;;;;;4927538;28;89602;-46
2023/08/22 11:53:12;;;;;;;112.30;57.53;;;24.70;74.60;;;;;;4926185;28;92763;-48
2023/08/22 11:55:40;;;;;;;113.03;57.55;;;24.70;74.90;;;;;;4920277;28;91717;-49
2023/08/22 11:58:15;;;;;;;112.18;57.40;;;24.80;75.00;;;;;;4926272;28;89951;-45
2023/08/22 12:00:41;;;;;;;112.43;57.50;;;24.80;74.20;;;;;;4922951;28;89754;-45
2023/08/22 12:03:07;;;;;;;113.88;57.50;;;24.80;74.70;;;;;;4928023;28;91309;-45
2023/08/22 12:05:45;;;;;;;114.60;57.90;;;24.80;74.50;;;;;;4925198;28;92590;-45
2023/08/22 12:08:11;;;;;;;113.57;57.80;;;24.80;74.40;;;;;;4919573;28;90383;-48
2023/08/22 12:10:51;;;;;;;114.93;58.88;;;24.90;74.90;;;;;;4925859;28;90783;-43
2023/08/22 12:13:18;;;;;;;113.65;57.95;;;24.90;74.70;;;;;;4920055;28;91754;-49
2023/08/22 12:15:45;;;;;;;113.90;58.30;;;24.90;75.00;;;;;;4925717;28;90181;-45
2023/08/22 12:18:11;;;;;;;113.00;58.05;;;24.90;74.50;;;;;;4923378;28;89834;-45
2023/08/22 12:20:39;;;;;;;112.88;58.03;;;24.90;74.70;;;;;;4925746;28;90897;-45